Time;durP1;ratioP1;P1;durP2;ratioP2;P2;SDS_P1;SDS_P2;PMS_P1;PMS_P2;Temp;Humidity;BMP_temperature;BMP_pressure;BME280_temperature;BME280_humidity;BME280_pressure;Samples;Min_cycle;Max_cycle;Signal;HPM_P1;HPM_P2
2022/01/18 00:01:24;;;;;;;50.35;7.72;;;7.60;99.90;;;;;;5061795;28;20494;-91
2022/01/18 00:03:50;;;;;;;50.70;7.10;;;7.60;99.90;;;;;;5048919;28;20037;-92
2022/01/18 00:06:15;;;;;;;46.20;6.25;;;7.60;99.90;;;;;;5064352;28;20071;-92
2022/01/18 00:08:41;;;;;;;37.88;5.53;;;7.60;99.90;;;;;;5066649;28;20449;-91
2022/01/18 00:11:07;;;;;;;51.30;7.38;;;7.60;99.90;;;;;;5053063;28;20490;-92
2022/01/18 00:18:30;;;;;;;48.92;7.47;;;7.60;99.90;;;;;;5061615;28;20091;-92
2022/01/18 00:23:26;;;;;;;38.33;5.85;;;7.60;99.90;;;;;;5066043;28;21286;-91
2022/01/18 00:25:55;;;;;;;47.50;7.30;;;7.60;99.90;;;;;;5057869;28;20514;-91
2022/01/18 00:28:23;;;;;;;43.72;6.85;;;7.60;99.90;;;;;;5065162;28;20041;-91
2022/01/18 00:31:30;;;;;;;47.65;6.88;;;7.60;99.90;;;;;;5045866;28;20073;-91
2022/01/18 00:34:05;;;;;;;50.03;6.03;;;7.50;99.90;;;;;;5091949;28;20080;-91
2022/01/18 00:36:53;;;;;;;57.60;7.90;;;7.50;99.90;;;;;;5045521;28;20436;-92
2022/01/18 00:39:19;;;;;;;43.97;6.07;;;7.50;99.90;;;;;;5095613;28;20029;-92
2022/01/18 00:41:45;;;;;;;45.03;7.15;;;7.40;99.90;;;;;;5049024;28;20041;-92
2022/01/18 00:44:11;;;;;;;49.95;7.35;;;7.40;99.90;;;;;;5089548;28;20047;-91
2022/01/18 00:46:38;;;;;;;47.45;6.60;;;7.40;99.90;;;;;;5045235;28;20036;-91
2022/01/18 00:49:05;;;;;;;37.13;5.88;;;7.40;99.90;;;;;;5040092;28;20044;-90
2022/01/18 00:51:36;;;;;;;43.50;6.68;;;7.40;99.90;;;;;;5042220;28;20502;-91
2022/01/18 00:54:03;;;;;;;55.53;6.50;;;7.40;99.90;;;;;;5063372;28;20044;-90
2022/01/18 00:56:31;;;;;;;49.40;7.72;;;7.30;99.90;;;;;;5045423;28;20040;-91
2022/01/18 00:58:58;;;;;;;41.38;6.25;;;7.30;99.90;;;;;;5054037;28;20535;-90
2022/01/18 01:01:27;;;;;;;42.38;6.47;;;7.30;99.90;;;;;;5043782;28;20136;-90
2022/01/18 01:03:56;;;;;;;47.40;7.10;;;7.30;99.90;;;;;;5048124;28;20036;-92
2022/01/18 01:06:22;;;;;;;36.38;6.47;;;7.20;99.90;;;;;;5049422;28;20051;-92
2022/01/18 01:08:49;;;;;;;49.33;6.32;;;7.20;99.90;;;;;;5043726;28;20540;-91
2022/01/18 01:11:15;;;;;;;47.58;7.10;;;7.20;99.90;;;;;;5058601;28;20040;-91
2022/01/18 01:13:45;;;;;;;58.90;8.02;;;7.20;99.90;;;;;;5056544;28;20059;-91
2022/01/18 01:35:26;;;;;;;35.22;6.50;;;7.00;99.90;;;;;;5060832;28;20068;-91
2022/01/18 01:45:52;;;;;;;48.95;6.68;;;7.00;99.90;;;;;;5065562;28;20050;-91
2022/01/18 01:48:19;;;;;;;46.22;7.25;;;7.00;99.90;;;;;;5048302;28;20098;-91
2022/01/18 01:50:49;;;;;;;46.10;7.15;;;7.00;99.90;;;;;;5059183;28;20036;-91
2022/01/18 01:53:18;;;;;;;54.20;7.82;;;7.00;99.90;;;;;;5049232;28;20405;-92
2022/01/18 01:55:44;;;;;;;45.30;8.23;;;7.00;99.90;;;;;;5061174;28;20032;-91
2022/01/18 01:58:09;;;;;;;50.60;8.07;;;7.00;99.90;;;;;;5043304;28;20051;-91
2022/01/18 02:00:49;;;;;;;50.85;9.15;;;7.00;99.90;;;;;;5041618;28;20036;-92
2022/01/18 02:03:15;;;;;;;42.85;7.18;;;6.90;99.90;;;;;;5043776;28;20060;-91
2022/01/18 02:05:41;;;;;;;53.05;7.80;;;7.00;99.90;;;;;;5067957;28;20033;-91
2022/01/18 02:08:07;;;;;;;45.30;8.05;;;7.00;99.90;;;;;;5043293;28;20041;-92
2022/01/18 02:10:35;;;;;;;51.42;9.05;;;7.00;99.90;;;;;;5044303;28;20111;-92
2022/01/18 02:13:02;;;;;;;53.22;8.73;;;7.00;99.90;;;;;;5035610;28;20036;-91
2022/01/18 02:15:28;;;;;;;60.72;9.63;;;6.90;99.90;;;;;;5045154;28;20052;-92
2022/01/18 02:23:26;;;;;;;72.85;9.23;;;7.00;99.90;;;;;;5071130;28;20119;-91
2022/01/18 02:25:52;;;;;;;54.58;8.23;;;7.00;99.90;;;;;;5067244;28;20117;-92
2022/01/18 02:28:19;;;;;;;51.55;8.20;;;6.90;99.90;;;;;;5065545;28;20037;-91
2022/01/18 02:30:45;;;;;;;42.85;8.38;;;7.00;99.90;;;;;;5051368;28;20517;-91
2022/01/18 02:33:12;;;;;;;43.65;8.20;;;7.00;99.90;;;;;;5069828;28;20489;-92
2022/01/18 02:35:37;;;;;;;45.20;8.52;;;7.00;99.90;;;;;;5050425;28;20067;-91
2022/01/18 02:38:04;;;;;;;50.25;9.02;;;7.00;99.90;;;;;;5046030;28;20063;-91
2022/01/18 02:40:30;;;;;;;47.67;7.13;;;6.90;99.90;;;;;;5081814;28;20535;-91
2022/01/18 02:43:00;;;;;;;42.38;7.15;;;7.00;99.90;;;;;;5064384;28;20083;-91
2022/01/18 02:45:27;;;;;;;47.38;7.82;;;7.00;99.90;;;;;;5048952;28;20566;-91
2022/01/18 02:47:54;;;;;;;40.67;6.43;;;7.00;99.90;;;;;;5064238;28;20428;-91
2022/01/18 02:50:21;;;;;;;52.25;7.47;;;7.00;99.90;;;;;;5043394;28;20067;-91
2022/01/18 02:52:47;;;;;;;39.83;7.88;;;7.00;99.90;;;;;;5051646;28;20115;-91
2022/01/18 02:55:13;;;;;;;42.20;6.60;;;7.00;99.90;;;;;;5065723;28;20111;-92
2022/01/18 02:57:56;;;;;;;40.25;6.70;;;7.00;99.90;;;;;;5062235;28;20041;-91
2022/01/18 03:03:12;;;;;;;35.60;6.53;;;6.90;99.90;;;;;;5064420;28;20040;-91
2022/01/18 03:03:16;;;;;;;31.42;6.57;;;6.90;99.90;;;;;;5055955;28;20167;-91
2022/01/18 03:05:43;;;;;;;50.38;9.15;;;6.90;99.90;;;;;;5060794;28;20128;-91
2022/01/18 03:08:10;;;;;;;33.45;6.05;;;6.90;99.90;;;;;;5064972;28;20044;-92
2022/01/18 03:10:37;;;;;;;34.30;6.40;;;6.90;99.90;;;;;;5054013;28;20509;-91
2022/01/18 03:13:03;;;;;;;33.72;6.53;;;6.90;99.90;;;;;;5048380;28;20028;-92
2022/01/18 03:15:29;;;;;;;35.33;7.05;;;6.90;99.90;;;;;;5061815;28;20049;-91
2022/01/18 03:17:55;;;;;;;35.38;5.88;;;6.90;99.90;;;;;;5064392;28;20174;-91
2022/01/18 03:20:22;;;;;;;38.53;6.00;;;6.90;99.90;;;;;;5044128;28;20056;-90
2022/01/18 03:22:49;;;;;;;38.88;5.72;;;6.90;99.90;;;;;;5048432;28;20044;-91
2022/01/18 03:28:05;;;;;;;40.35;5.78;;;6.90;99.90;;;;;;5066382;28;20071;-91
2022/01/18 03:31:00;;;;;;;37.95;6.32;;;6.90;99.90;;;;;;5051280;28;20033;-92
2022/01/18 03:33:30;;;;;;;26.38;5.30;;;6.90;99.90;;;;;;5058962;28;20518;-92
2022/01/18 03:35:57;;;;;;;25.23;4.43;;;6.90;99.90;;;;;;5041622;28;20044;-92
2022/01/18 03:38:29;;;;;;;32.90;5.50;;;6.90;99.90;;;;;;5047482;28;20040;-92
2022/01/18 03:41:03;;;;;;;33.75;4.60;;;6.90;99.90;;;;;;5045248;28;20040;-91
2022/01/18 03:43:34;;;;;;;33.70;5.40;;;6.90;99.90;;;;;;5042276;28;20037;-92
2022/01/18 03:46:03;;;;;;;33.20;6.60;;;6.90;99.90;;;;;;5042472;28;20044;-91
2022/01/18 03:48:33;;;;;;;31.25;4.57;;;6.90;99.90;;;;;;5092126;28;20036;-92
2022/01/18 03:50:59;;;;;;;30.40;5.00;;;6.90;99.90;;;;;;5049698;28;20116;-90
2022/01/18 03:53:26;;;;;;;26.65;4.60;;;7.00;99.90;;;;;;5047374;28;20046;-90
2022/01/18 03:55:52;;;;;;;31.20;4.28;;;6.90;99.90;;;;;;5064342;28;20519;-91
2022/01/18 03:58:17;;;;;;;33.38;4.38;;;7.00;99.90;;;;;;5094003;28;20045;-91
2022/01/18 04:00:43;;;;;;;27.45;3.78;;;7.00;99.90;;;;;;5066507;28;20036;-91
2022/01/18 04:03:09;;;;;;;23.02;4.68;;;7.00;99.90;;;;;;5065267;28;20036;-91
2022/01/18 04:05:34;;;;;;;28.73;4.03;;;6.90;99.90;;;;;;5048295;28;20165;-92
2022/01/18 04:08:00;;;;;;;19.88;3.55;;;7.00;99.90;;;;;;5058674;28;20119;-91
2022/01/18 04:10:26;;;;;;;26.20;3.75;;;7.00;99.90;;;;;;5059936;28;20041;-91
2022/01/18 04:12:53;;;;;;;23.48;4.57;;;6.90;99.90;;;;;;5046666;28;20036;-92
2022/01/18 04:15:19;;;;;;;26.02;4.20;;;6.90;99.90;;;;;;5061464;28;20597;-91
2022/01/18 04:18:27;;;;;;;20.20;3.60;;;6.90;99.90;;;;;;5066467;28;20037;-91
2022/01/18 04:26:55;;;;;;;27.38;5.40;;;6.90;99.90;;;;;;5064464;28;20051;-91
2022/01/18 04:28:52;;;;;;;25.65;5.30;;;6.90;99.90;;;;;;5089085;28;20045;-92
2022/01/18 04:31:18;;;;;;;27.30;5.40;;;6.90;99.90;;;;;;5048747;28;20036;-92
2022/01/18 04:33:44;;;;;;;28.40;4.95;;;6.90;99.90;;;;;;5047834;28;20040;-91
2022/01/18 04:36:09;;;;;;;26.52;4.90;;;6.80;99.90;;;;;;5046675;28;20524;-91
2022/01/18 04:38:37;;;;;;;25.60;4.88;;;6.80;99.90;;;;;;5048617;28;20028;-91
2022/01/18 04:41:06;;;;;;;27.80;5.00;;;6.80;99.90;;;;;;5061110;28;20037;-91
2022/01/18 04:49:03;;;;;;;28.88;5.00;;;6.70;99.90;;;;;;5064055;28;20040;-90
2022/01/18 04:51:29;;;;;;;21.23;4.32;;;6.70;99.90;;;;;;5078679;28;20039;-91
2022/01/18 04:53:57;;;;;;;19.83;3.90;;;6.70;99.90;;;;;;5063713;28;20036;-91
2022/01/18 04:59:04;;;;;;;17.88;3.92;;;6.70;99.90;;;;;;5064600;28;20051;-91
2022/01/18 05:01:30;;;;;;;19.95;3.40;;;6.70;99.90;;;;;;5047048;28;20028;-91
2022/01/18 05:03:56;;;;;;;18.60;3.97;;;6.60;99.90;;;;;;5045610;28;20040;-92
2022/01/18 05:06:22;;;;;;;18.33;3.53;;;6.70;99.90;;;;;;5045995;28;20413;-91
2022/01/18 05:08:48;;;;;;;20.52;3.67;;;6.70;99.90;;;;;;5065511;28;20388;-92
2022/01/18 05:11:16;;;;;;;25.40;3.55;;;6.70;99.90;;;;;;5048128;28;20149;-91
2022/01/18 05:16:41;;;;;;;20.42;3.35;;;6.70;99.90;;;;;;5062989;28;20529;-91
2022/01/18 05:24:27;;;;;;;18.88;3.70;;;6.70;99.90;;;;;;5098110;27;20100;-91
2022/01/18 05:26:54;;;;;;;23.00;2.72;;;6.80;99.90;;;;;;5044776;28;20044;-90
2022/01/18 05:29:20;;;;;;;16.52;2.85;;;6.70;99.90;;;;;;5034844;28;20033;-90
2022/01/18 05:31:46;;;;;;;16.30;2.58;;;6.80;99.90;;;;;;5095152;28;20533;-91
2022/01/18 05:34:13;;;;;;;14.38;2.35;;;6.80;99.90;;;;;;5048885;28;20116;-92
2022/01/18 05:36:39;;;;;;;13.73;2.35;;;6.80;99.90;;;;;;5063417;28;20116;-92
2022/01/18 05:39:09;;;;;;;14.68;2.05;;;6.70;99.90;;;;;;5062451;28;20040;-90
2022/01/18 05:41:36;;;;;;;11.90;2.05;;;6.80;99.90;;;;;;5088333;28;20041;-91
2022/01/18 05:44:01;;;;;;;18.70;2.35;;;6.80;99.90;;;;;;5048560;28;20036;-91
2022/01/18 05:46:27;;;;;;;11.00;1.95;;;6.70;99.90;;;;;;5057119;28;20387;-92
2022/01/18 05:48:52;;;;;;;13.23;1.58;;;6.80;99.90;;;;;;5061328;28;20189;-91
2022/01/18 05:51:18;;;;;;;13.63;2.08;;;6.80;99.90;;;;;;5066146;28;20036;-92
2022/01/18 05:53:44;;;;;;;15.70;2.00;;;6.80;99.90;;;;;;5045215;28;20036;-92
2022/01/18 05:56:11;;;;;;;15.43;3.28;;;6.80;99.90;;;;;;5048679;28;20037;-91
2022/01/18 05:58:45;;;;;;;18.90;2.25;;;6.80;99.90;;;;;;5045096;28;20048;-91
2022/01/18 06:01:14;;;;;;;14.48;2.00;;;6.80;99.90;;;;;;5062665;28;20056;-91
2022/01/18 06:03:54;;;;;;;13.18;1.60;;;6.80;99.90;;;;;;5064834;28;20024;-91
2022/01/18 06:09:04;;;;;;;14.63;2.17;;;6.80;99.90;;;;;;5062696;28;20066;-91
2022/01/18 06:11:33;;;;;;;9.65;1.73;;;6.80;99.90;;;;;;5047406;28;20033;-91
2022/01/18 06:13:59;;;;;;;11.55;2.28;;;6.80;99.90;;;;;;5052615;28;20397;-91
2022/01/18 06:16:25;;;;;;;12.02;1.80;;;6.80;99.90;;;;;;5067395;28;20058;-91
2022/01/18 06:18:51;;;;;;;14.13;2.40;;;6.80;99.90;;;;;;5103781;27;20086;-90
2022/01/18 06:21:17;;;;;;;15.02;2.83;;;6.80;99.90;;;;;;5069003;28;20032;-92
2022/01/18 06:23:42;;;;;;;19.60;2.75;;;6.80;99.90;;;;;;5053531;28;20028;-92
2022/01/18 06:26:12;;;;;;;17.33;2.10;;;6.80;99.90;;;;;;5098680;28;20079;-92
2022/01/18 06:28:38;;;;;;;17.73;1.88;;;6.80;99.90;;;;;;5048628;28;20399;-91
2022/01/18 06:31:03;;;;;;;11.00;1.90;;;6.80;99.90;;;;;;5049012;28;20028;-91
2022/01/18 06:33:29;;;;;;;14.95;2.08;;;6.80;99.90;;;;;;5048796;28;20040;-91
2022/01/18 06:35:54;;;;;;;9.90;2.05;;;6.80;99.90;;;;;;5046030;28;20047;-91
2022/01/18 06:38:20;;;;;;;15.50;2.20;;;6.80;99.90;;;;;;5063781;28;20060;-91
2022/01/18 06:40:47;;;;;;;18.58;2.42;;;6.80;99.90;;;;;;5044401;28;20530;-91
2022/01/18 06:43:13;;;;;;;16.58;1.85;;;6.80;99.90;;;;;;5073722;28;20106;-91
2022/01/18 06:45:38;;;;;;;13.95;2.20;;;6.80;99.90;;;;;;5061483;28;20494;-92
2022/01/18 06:48:04;;;;;;;11.52;1.80;;;6.80;99.90;;;;;;5047717;28;20029;-91
2022/01/18 06:50:30;;;;;;;9.10;1.80;;;6.80;99.90;;;;;;5062356;28;20037;-91
2022/01/18 06:52:55;;;;;;;17.08;2.50;;;6.70;99.90;;;;;;5042985;28;20099;-91
2022/01/18 06:55:21;;;;;;;11.90;1.80;;;6.70;99.90;;;;;;5067255;28;20094;-91
2022/01/18 06:57:47;;;;;;;11.68;1.67;;;6.70;99.90;;;;;;5051808;28;20052;-91
2022/01/18 07:00:13;;;;;;;14.40;3.15;;;6.70;99.90;;;;;;5097385;28;20052;-91
2022/01/18 07:02:39;;;;;;;13.77;2.22;;;6.70;99.90;;;;;;5060838;28;20108;-92
2022/01/18 07:05:05;;;;;;;18.52;2.47;;;6.70;99.90;;;;;;5064151;28;20533;-92
2022/01/18 07:07:31;;;;;;;21.95;2.67;;;6.70;99.90;;;;;;5068724;28;20036;-92
2022/01/18 07:09:56;;;;;;;16.08;2.47;;;6.70;99.90;;;;;;5045556;28;20044;-92
2022/01/18 07:12:23;;;;;;;21.35;2.63;;;6.70;99.90;;;;;;5047133;28;20430;-91
2022/01/18 07:14:48;;;;;;;14.90;2.45;;;6.70;99.90;;;;;;5078095;28;20547;-91
2022/01/18 07:17:14;;;;;;;18.30;3.05;;;6.70;99.90;;;;;;5050729;28;20086;-92
2022/01/18 07:19:39;;;;;;;15.93;2.50;;;6.60;99.90;;;;;;5045398;28;20052;-88
2022/01/18 07:22:05;;;;;;;16.45;3.92;;;6.60;99.90;;;;;;5047493;28;20045;-91
2022/01/18 07:24:43;;;;;;;17.85;2.90;;;6.60;99.90;;;;;;5067620;28;20115;-91
2022/01/18 07:27:11;;;;;;;15.10;2.65;;;6.60;99.90;;;;;;5063016;28;21900;-90
2022/01/18 07:29:37;;;;;;;15.73;3.30;;;6.60;99.90;;;;;;5078890;28;20047;-91
2022/01/18 07:32:04;;;;;;;17.45;2.80;;;6.60;99.90;;;;;;5051269;28;20056;-92
2022/01/18 07:34:32;;;;;;;11.25;2.90;;;6.60;99.90;;;;;;5060740;28;20040;-91
2022/01/18 07:36:57;;;;;;;15.27;2.90;;;6.60;99.90;;;;;;5042104;28;20044;-92
2022/01/18 07:39:23;;;;;;;13.65;2.88;;;6.60;99.90;;;;;;5068025;28;20047;-91
2022/01/18 07:41:48;;;;;;;15.85;4.10;;;6.60;99.90;;;;;;5065565;28;20044;-91
2022/01/18 07:44:14;;;;;;;18.17;4.28;;;6.60;99.90;;;;;;5045432;28;20102;-92
2022/01/18 07:46:40;;;;;;;22.52;5.07;;;6.60;99.90;;;;;;5058100;28;20032;-85
2022/01/18 07:49:05;;;;;;;17.58;3.40;;;6.60;99.90;;;;;;5062603;28;20506;-92
2022/01/18 07:51:31;;;;;;;19.55;3.90;;;6.60;99.90;;;;;;5061212;28;20032;-91
2022/01/18 07:53:57;;;;;;;15.52;3.72;;;6.60;99.90;;;;;;5055912;28;20067;-89
2022/01/18 07:56:22;;;;;;;16.40;3.58;;;6.60;99.90;;;;;;5091861;28;20044;-92
2022/01/18 07:58:48;;;;;;;16.73;4.07;;;6.60;99.90;;;;;;5075345;28;20678;-86
2022/01/18 08:01:13;;;;;;;16.45;3.70;;;6.60;99.90;;;;;;5061219;28;20499;-91
2022/01/18 08:03:39;;;;;;;18.90;4.20;;;6.60;99.90;;;;;;5062953;28;20033;-92
2022/01/18 08:06:05;;;;;;;19.92;3.95;;;6.60;99.90;;;;;;5075836;28;20109;-88
2022/01/18 08:08:32;;;;;;;20.92;4.70;;;6.60;99.90;;;;;;5049767;28;20063;-88
2022/01/18 08:10:58;;;;;;;15.88;4.25;;;6.60;99.90;;;;;;5045704;28;20036;-89
2022/01/18 08:13:28;;;;;;;18.90;3.90;;;6.60;99.90;;;;;;5061436;28;20110;-89
2022/01/18 08:16:09;;;;;;;14.20;4.35;;;6.60;99.90;;;;;;5060017;28;20036;-88
2022/01/18 08:18:35;;;;;;;25.10;5.50;;;6.60;99.90;;;;;;5046665;28;20044;-89
2022/01/18 08:21:01;;;;;;;21.77;4.68;;;6.60;99.90;;;;;;5059663;28;20047;-89
2022/01/18 08:23:26;;;;;;;18.95;5.00;;;6.60;99.90;;;;;;5061386;28;20044;-88
2022/01/18 08:25:53;;;;;;;20.38;5.00;;;6.60;99.90;;;;;;5047113;28;20048;-89
2022/01/18 08:28:19;;;;;;;19.88;4.65;;;6.60;99.90;;;;;;5040154;28;20043;-88
2022/01/18 08:30:44;;;;;;;22.65;4.93;;;6.60;99.90;;;;;;5042761;28;20025;-89
2022/01/18 08:33:10;;;;;;;17.92;4.80;;;6.60;99.90;;;;;;5055550;28;20399;-90
2022/01/18 08:35:37;;;;;;;17.95;5.35;;;6.60;99.90;;;;;;5056171;28;20041;-89
2022/01/18 08:38:03;;;;;;;27.05;4.80;;;6.60;99.90;;;;;;5042548;28;20050;-89
2022/01/18 08:40:29;;;;;;;16.23;4.68;;;6.60;99.90;;;;;;5046928;28;20036;-90
2022/01/18 08:42:55;;;;;;;17.67;4.95;;;6.60;99.90;;;;;;5048389;28;20501;-90
2022/01/18 08:45:20;;;;;;;19.65;4.75;;;6.60;99.90;;;;;;5047233;28;20044;-86
2022/01/18 08:47:47;;;;;;;19.67;4.43;;;6.60;99.90;;;;;;5046192;28;20035;-90
2022/01/18 08:50:13;;;;;;;16.80;4.65;;;6.60;99.90;;;;;;5041568;28;20032;-90
2022/01/18 08:52:38;;;;;;;22.88;5.30;;;6.60;99.90;;;;;;5065340;28;20438;-90
2022/01/18 08:55:04;;;;;;;22.50;6.68;;;6.70;99.90;;;;;;5067829;28;20477;-90
2022/01/18 08:57:30;;;;;;;21.50;5.05;;;6.60;99.90;;;;;;5051664;28;20079;-91
2022/01/18 08:59:55;;;;;;;21.48;5.05;;;6.60;99.90;;;;;;5050697;28;20083;-92
2022/01/18 09:02:21;;;;;;;23.15;5.38;;;6.60;99.90;;;;;;5067672;28;20586;-91
2022/01/18 09:04:46;;;;;;;18.60;5.32;;;6.70;99.90;;;;;;5067325;28;20106;-90
2022/01/18 09:07:12;;;;;;;18.75;5.38;;;6.70;99.90;;;;;;5051228;28;20040;-90
2022/01/18 09:09:41;;;;;;;23.88;7.10;;;6.70;99.90;;;;;;5067498;28;20040;-90
2022/01/18 09:12:13;;;;;;;20.88;5.07;;;6.70;99.90;;;;;;5067917;28;20044;-90
2022/01/18 09:14:39;;;;;;;20.73;5.15;;;6.70;99.90;;;;;;5049834;28;20036;-90
2022/01/18 09:17:05;;;;;;;21.10;5.68;;;6.70;99.90;;;;;;5049768;28;20051;-90
2022/01/18 09:19:31;;;;;;;22.95;5.25;;;6.70;99.90;;;;;;5049065;28;20568;-90
2022/01/18 09:21:59;;;;;;;23.10;4.80;;;6.70;99.90;;;;;;5083904;28;20036;-90
2022/01/18 09:24:24;;;;;;;18.98;4.95;;;6.70;99.90;;;;;;5084443;28;20383;-90
2022/01/18 09:26:50;;;;;;;18.92;4.88;;;6.80;99.90;;;;;;5050587;28;20498;-90
2022/01/18 09:29:15;;;;;;;15.15;4.57;;;6.80;99.90;;;;;;5082932;28;20047;-91
2022/01/18 09:31:42;;;;;;;25.30;4.93;;;6.80;99.90;;;;;;5100241;28;20040;-90
2022/01/18 09:34:07;;;;;;;21.30;4.97;;;6.80;99.90;;;;;;5082609;28;20131;-90
2022/01/18 09:36:33;;;;;;;17.45;4.85;;;6.80;99.90;;;;;;5066902;28;20132;-91
2022/01/18 09:38:59;;;;;;;19.52;5.70;;;6.90;99.90;;;;;;5050216;28;20070;-90
2022/01/18 09:41:29;;;;;;;20.70;4.97;;;6.90;99.90;;;;;;5058485;28;20037;-84
2022/01/18 09:43:55;;;;;;;17.98;4.55;;;6.90;99.90;;;;;;5042787;28;20128;-89
2022/01/18 09:46:24;;;;;;;21.65;4.40;;;7.00;99.90;;;;;;5046928;28;20271;-88
2022/01/18 09:48:56;;;;;;;17.95;5.13;;;7.00;99.90;;;;;;5039647;28;20568;-90
2022/01/18 09:51:23;;;;;;;19.15;4.70;;;6.90;99.90;;;;;;5072916;28;20043;-90
2022/01/18 09:53:49;;;;;;;16.88;4.57;;;7.00;99.90;;;;;;5049707;28;20068;-90
2022/01/18 09:56:16;;;;;;;22.00;4.30;;;7.00;99.90;;;;;;5046571;28;20402;-90
2022/01/18 09:58:41;;;;;;;18.85;5.40;;;7.00;99.90;;;;;;5071885;28;20514;-90
2022/01/18 10:01:07;;;;;;;15.18;4.47;;;7.10;99.90;;;;;;5081052;28;20044;-90
2022/01/18 10:03:36;;;;;;;24.90;5.28;;;7.10;99.90;;;;;;5068816;28;20033;-89
2022/01/18 10:06:04;;;;;;;20.40;4.70;;;7.10;99.90;;;;;;5043751;28;20101;-90
2022/01/18 10:08:30;;;;;;;18.60;4.75;;;7.20;99.90;;;;;;5046404;28;20079;-90
2022/01/18 10:11:02;;;;;;;21.52;4.90;;;7.10;99.90;;;;;;5075310;28;20067;-90
2022/01/18 10:13:29;;;;;;;21.65;5.45;;;7.20;99.90;;;;;;5069345;28;20055;-90
2022/01/18 10:16:22;;;;;;;15.65;5.22;;;7.20;99.90;;;;;;5075929;28;20029;-90
2022/01/18 10:19:01;;;;;;;29.52;6.45;;;7.20;99.90;;;;;;5095848;28;20045;-90
2022/01/18 10:21:35;;;;;;;20.27;6.13;;;7.20;99.90;;;;;;5041406;28;20036;-90
2022/01/18 10:24:21;;;;;;;21.35;5.45;;;7.30;99.90;;;;;;5058468;28;20036;-90
2022/01/18 10:26:48;;;;;;;;;;;7.30;99.90;;;;;;5060192;28;20517;-90
2022/01/18 10:29:15;;;;;;;20.88;5.10;;;7.30;99.90;;;;;;5063337;28;20468;-91
2022/01/18 10:31:57;;;;;;;18.15;5.13;;;7.30;99.90;;;;;;5048075;28;20081;-90
2022/01/18 10:34:30;;;;;;;24.17;6.10;;;7.30;99.90;;;;;;5049722;28;20040;-91
2022/01/18 10:37:01;;;;;;;18.02;5.75;;;7.30;99.90;;;;;;5063870;28;20072;-90
2022/01/18 10:39:33;;;;;;;19.35;5.47;;;7.30;99.90;;;;;;5063311;28;20044;-87
2022/01/18 10:42:01;;;;;;;26.50;6.32;;;7.40;99.90;;;;;;5039721;28;20098;-89
2022/01/18 10:44:30;;;;;;;23.58;6.35;;;7.40;99.90;;;;;;5092879;28;20041;-90
2022/01/18 10:46:58;;;;;;;17.70;6.38;;;7.40;99.90;;;;;;5064104;28;20471;-90
2022/01/18 10:49:34;;;;;;;23.17;5.43;;;7.40;99.90;;;;;;5043618;28;20362;-89
2022/01/18 10:52:07;;;;;;;27.35;5.88;;;7.50;99.90;;;;;;5098245;28;20040;-89
2022/01/18 10:54:40;;;;;;;16.60;4.55;;;7.50;99.90;;;;;;5065986;28;20040;-86
2022/01/18 10:57:07;;;;;;;18.48;5.97;;;7.50;99.90;;;;;;5082878;28;20441;-89
2022/01/18 10:59:37;;;;;;;17.45;5.47;;;7.50;99.90;;;;;;5064882;28;20036;-89
2022/01/18 11:02:13;;;;;;;21.10;5.40;;;7.50;99.90;;;;;;5081391;28;20201;-88
2022/01/18 11:05:18;;;;;;;14.70;4.32;;;7.50;99.90;;;;;;5066876;28;20452;-88
2022/01/18 11:07:45;;;;;;;14.45;4.70;;;7.60;99.90;;;;;;5066529;28;20036;-88
2022/01/18 11:10:13;;;;;;;16.90;4.80;;;7.60;99.90;;;;;;5061691;28;20119;-87
2022/01/18 11:12:56;;;;;;;16.60;4.40;;;7.60;99.90;;;;;;5067237;28;20067;-88
2022/01/18 11:15:24;;;;;;;16.35;4.57;;;7.60;99.90;;;;;;5078775;28;20048;-87
2022/01/18 11:17:58;;;;;;;16.63;3.63;;;7.60;99.90;;;;;;5051954;28;20048;-86
2022/01/18 11:20:25;;;;;;;17.40;4.05;;;7.60;99.90;;;;;;5047898;28;20040;-87
2022/01/18 11:22:51;;;;;;;16.10;3.25;;;7.60;99.90;;;;;;5049433;28;20048;-87
2022/01/18 11:25:18;;;;;;;17.20;3.15;;;7.60;99.90;;;;;;5066173;28;20051;-87
2022/01/18 11:27:48;;;;;;;11.30;2.90;;;7.60;99.90;;;;;;5064624;28;20104;-87
2022/01/18 11:30:16;;;;;;;16.38;4.43;;;7.60;99.90;;;;;;5048166;28;20036;-87
2022/01/18 11:32:43;;;;;;;13.68;4.55;;;7.60;99.90;;;;;;5046353;28;20039;-87
2022/01/18 11:35:14;;;;;;;15.30;4.38;;;7.60;99.90;;;;;;5082771;28;20051;-87
2022/01/18 11:37:58;;;;;;;17.17;4.65;;;7.60;99.90;;;;;;5078730;28;20032;-87
2022/01/18 11:40:25;;;;;;;15.45;4.05;;;7.60;99.90;;;;;;5048606;28;20608;-87
2022/01/18 11:42:52;;;;;;;13.82;3.53;;;7.60;99.90;;;;;;5063375;28;20215;-87
2022/01/18 11:45:39;;;;;;;14.50;3.55;;;7.60;99.90;;;;;;5049836;28;20165;-87
2022/01/18 11:48:14;;;;;;;14.38;4.38;;;7.50;99.90;;;;;;5041919;28;20163;-87
2022/01/18 11:51:00;;;;;;;15.85;3.80;;;7.60;99.90;;;;;;5049554;28;20596;-87
2022/01/18 11:56:40;;;;;;;14.45;3.33;;;7.60;99.90;;;;;;5063534;28;20136;-87
2022/01/18 11:59:26;;;;;;;10.45;2.80;;;7.60;99.90;;;;;;5082663;28;20050;-87
2022/01/18 12:02:00;;;;;;;15.77;2.80;;;7.60;99.90;;;;;;5066179;28;20029;-87
2022/01/18 12:04:54;;;;;;;12.57;3.15;;;7.60;99.90;;;;;;5045603;28;20036;-86
2022/01/18 12:07:38;;;;;;;10.52;2.63;;;7.60;99.90;;;;;;5092209;28;20517;-87
2022/01/18 12:10:09;;;;;;;12.25;4.22;;;7.60;99.90;;;;;;5047398;28;20032;-86
2022/01/18 12:12:41;;;;;;;13.57;3.08;;;7.60;99.90;;;;;;5062570;28;20531;-88
2022/01/18 12:15:16;;;;;;;23.73;4.00;;;7.60;99.90;;;;;;5063361;28;20391;-90
2022/01/18 12:17:50;;;;;;;16.30;3.55;;;7.60;99.90;;;;;;5049925;28;20055;-89
2022/01/18 12:20:39;;;;;;;18.67;2.83;;;7.60;99.90;;;;;;5047773;28;20044;-89
2022/01/18 12:23:09;;;;;;;14.20;2.85;;;7.60;99.90;;;;;;5084861;28;20037;-89
2022/01/18 12:34:30;;;;;;;15.60;3.53;;;7.60;99.90;;;;;;5048379;28;20058;-89
2022/01/18 12:37:08;;;;;;;15.30;2.75;;;7.50;99.90;;;;;;5065208;28;20382;-90
2022/01/18 12:44:58;;;;;;;12.40;2.78;;;7.50;99.90;;;;;;5067300;28;20048;-90
2022/01/18 12:47:23;;;;;;;11.50;2.88;;;7.50;99.90;;;;;;5063045;28;20037;-90
2022/01/18 12:49:52;;;;;;;11.55;2.88;;;7.50;99.90;;;;;;5065057;28;20315;-90
2022/01/18 12:52:17;;;;;;;11.40;2.65;;;7.50;99.90;;;;;;5049289;28;20041;-90
2022/01/18 12:54:43;;;;;;;16.85;3.15;;;7.50;99.90;;;;;;5067225;28;20040;-89
2022/01/18 12:57:20;;;;;;;11.25;2.63;;;7.60;99.90;;;;;;5066182;28;20044;-89
2022/01/18 12:59:58;;;;;;;14.07;3.22;;;7.60;99.90;;;;;;5062617;28;20177;-89
2022/01/18 13:02:24;;;;;;;8.45;2.40;;;7.60;99.90;;;;;;5050917;28;20049;-89
2022/01/18 13:04:57;;;;;;;14.88;2.42;;;7.50;99.90;;;;;;5050003;28;20043;-89
2022/01/18 13:07:23;;;;;;;11.95;3.17;;;7.50;99.90;;;;;;5050555;28;20087;-89
2022/01/18 13:10:00;;;;;;;11.02;2.78;;;7.50;99.90;;;;;;5064498;28;20436;-90
2022/01/18 13:12:34;;;;;;;12.60;2.63;;;7.50;99.90;;;;;;5051010;28;20423;-89
2022/01/18 13:15:03;;;;;;;11.57;3.15;;;7.50;99.90;;;;;;5048656;28;20036;-89
2022/01/18 13:23:30;;;;;;;12.23;3.40;;;7.50;99.90;;;;;;5066924;28;20491;-89
2022/01/18 13:25:59;;;;;;;12.20;4.18;;;7.50;99.90;;;;;;5099771;28;20090;-89
2022/01/18 13:28:35;;;;;;;12.32;3.65;;;7.50;99.90;;;;;;5049109;28;20040;-84
2022/01/18 13:31:19;;;;;;;18.77;5.47;;;7.50;99.90;;;;;;5058166;28;20051;-85
2022/01/18 13:34:04;;;;;;;15.45;5.30;;;7.40;99.90;;;;;;5065760;28;20060;-88
2022/01/18 13:36:32;;;;;;;42.45;14.10;;;7.50;99.90;;;;;;5057597;28;20044;-89
2022/01/18 13:39:31;;;;;;;21.90;7.38;;;7.40;99.90;;;;;;5040673;28;20270;-88
2022/01/18 13:41:59;;;;;;;21.10;8.40;;;7.50;99.90;;;;;;5091411;28;20037;-89
2022/01/18 13:44:25;;;;;;;18.60;5.70;;;7.40;99.90;;;;;;5073875;28;20029;-90
2022/01/18 13:46:50;;;;;;;15.15;4.80;;;7.40;99.90;;;;;;5079374;28;20194;-90
2022/01/18 13:49:21;;;;;;;16.42;5.05;;;7.40;99.90;;;;;;5057165;28;20056;-90
2022/01/18 13:52:06;;;;;;;22.48;8.85;;;7.40;99.90;;;;;;5059729;28;20037;-87
2022/01/18 13:54:52;;;;;;;17.17;5.38;;;7.40;99.90;;;;;;5060329;28;20458;-89
2022/01/18 13:57:20;;;;;;;20.73;8.65;;;7.40;99.90;;;;;;5058037;28;20461;-88
2022/01/18 13:59:48;;;;;;;20.10;6.78;;;7.40;99.90;;;;;;5037491;28;20037;-86
2022/01/18 14:02:17;;;;;;;16.80;6.60;;;7.40;99.90;;;;;;5055712;28;20128;-88
2022/01/18 14:04:44;;;;;;;48.72;25.23;;;7.40;99.90;;;;;;5076061;28;20056;-87
2022/01/18 14:07:10;;;;;;;22.70;12.60;;;7.40;99.90;;;;;;5073862;28;20049;-87
2022/01/18 14:09:36;;;;;;;24.40;19.48;;;7.40;99.90;;;;;;5056065;28;20394;-88
2022/01/18 14:12:02;;;;;;;25.00;13.20;;;7.40;99.90;;;;;;5072831;28;20045;-88
2022/01/18 14:14:31;;;;;;;17.30;7.43;;;7.40;99.90;;;;;;5045398;28;20041;-88
2022/01/18 14:16:59;;;;;;;17.95;6.55;;;7.40;99.90;;;;;;5063642;28;20040;-88
2022/01/18 14:20:01;;;;;;;22.70;6.68;;;7.30;99.90;;;;;;5050095;28;20155;-88
2022/01/18 14:22:27;;;;;;;15.88;6.18;;;7.40;99.90;;;;;;5064281;28;20043;-85
2022/01/18 14:24:58;;;;;;;17.85;6.20;;;7.40;99.90;;;;;;5071621;28;20509;-88
2022/01/18 14:27:35;;;;;;;19.35;11.25;;;7.40;99.90;;;;;;5047559;28;20036;-89
2022/01/18 14:30:07;;;;;;;22.27;7.57;;;7.40;99.90;;;;;;5047205;28;20106;-89